.
WxDataArchive / Data Records for 2013-04-04
2013-04-03 April 2013 2013-04-05

Data Records for Thursday, 04 April 2013

Time	Temp	Chill	HIndex	Humid	Dewpt	 Wind 	HiWind	WindDir	Rain 	Barom 
-----	----	-----	------	-----	-----	------	------	-------	-----	----- 
00:00	27.9	27.9	27.9	53	13.0	0	0	---	0.00	30.353 
00:05	27.6	27.6	27.6	53	12.7	0	0	---	0.00	30.353 
00:10	27.8	27.8	27.8	53	12.9	0	0	---	0.00	30.353 
00:15	27.8	27.8	27.8	53	12.9	0	0	---	0.00	30.356 
00:20	27.6	27.6	27.6	52	12.3	0	0	---	0.00	30.356 
00:25	27.6	27.6	27.6	53	12.7	0	0	---	0.00	30.356 
00:30	27.5	27.5	27.5	54	13.1	0	0	---	0.00	30.351 
00:35	27.5	27.5	27.5	54	13.1	0	0	---	0.00	30.351 
00:40	27.3	27.3	27.3	54	12.9	0	0	---	0.00	30.351 
00:45	27.3	27.3	27.3	55	13.3	0	0	---	0.00	30.349 
00:50	27.3	27.3	27.3	55	13.3	0	0	---	0.00	30.349 
00:55	27.2	27.2	27.2	55	13.2	0	0	---	0.00	30.349 
01:00	27.2	27.2	27.2	55	13.2	0	2	90	0.00	30.350 
01:05	27.3	27.3	27.3	54	12.9	0	1	90	0.00	30.350 
01:10	27.3	27.3	27.3	53	12.5	0	0	---	0.00	30.350 
01:15	27.5	27.5	27.5	53	12.6	0	0	---	0.00	30.349 
01:20	27.5	27.5	27.5	52	12.2	0	0	---	0.00	30.349 
01:25	27.6	27.6	27.6	52	12.3	0	2	90	0.00	30.349 
01:30	27.8	27.8	27.8	52	12.5	0	1	90	0.00	30.351 
01:35	27.8	27.8	27.8	52	12.5	0	0	---	0.00	30.351 
01:40	27.6	27.6	27.6	52	12.3	0	0	---	0.00	30.351 
01:45	27.6	27.6	27.6	52	12.3	0	0	---	0.00	30.351 
01:50	27.5	27.5	27.5	52	12.2	0	0	---	0.00	30.351 
01:55	27.5	27.5	27.5	51	11.8	0	0	---	0.00	30.351 
02:00	27.6	27.6	27.6	51	11.9	0	0	---	0.00	30.351 
02:05	27.9	27.9	27.9	51	12.1	0	0	---	0.00	30.351 
02:10	28.2	28.2	28.2	51	12.4	0	1	90	0.00	30.351 
02:15	28.4	28.4	28.4	50	12.2	0	0	---	0.00	30.350 
02:20	28.5	28.5	28.5	51	12.7	0	1	90	0.00	30.350 
02:25	28.5	28.5	28.5	51	12.7	0	0	---	0.00	30.350 
02:30	28.7	28.7	28.7	51	12.9	0	0	---	0.00	30.346 
02:35	28.7	28.7	28.7	51	12.9	0	0	---	0.00	30.346 
02:40	28.7	28.7	28.7	52	13.3	0	1	90	0.00	30.346 
02:45	28.7	28.7	28.7	52	13.3	0	0	---	0.00	30.344 
02:50	28.5	28.5	28.5	53	13.6	0	0	---	0.00	30.344 
02:55	28.5	28.5	28.5	53	13.6	0	0	---	0.00	30.344 
03:00	28.4	28.4	28.4	53	13.5	0	0	---	0.00	30.342 
03:05	28.2	28.2	28.2	54	13.7	0	0	---	0.00	30.342 
03:10	27.9	27.9	27.9	54	13.4	0	0	---	0.00	30.342 
03:15	27.8	27.8	27.8	55	13.8	0	0	---	0.00	30.335 
03:20	27.5	27.5	27.5	56	13.9	0	0	---	0.00	30.335 
03:25	27.5	27.5	27.5	56	13.9	0	0	---	0.00	30.335 
03:30	27.5	27.5	27.5	57	14.3	0	0	---	0.00	30.330 
03:35	27.5	27.5	27.5	57	14.3	0	0	---	0.00	30.330 
03:40	27.3	27.3	27.3	57	14.1	0	0	---	0.00	30.330 
03:45	27.0	27.0	27.0	58	14.2	0	0	---	0.00	30.328 
03:50	26.9	26.9	26.9	58	14.1	0	0	---	0.00	30.328 
03:55	26.6	26.6	26.6	58	13.8	0	0	---	0.00	30.328 
04:00	26.4	26.4	26.4	59	14.0	0	0	---	0.00	30.327 
04:05	26.3	26.3	26.3	60	14.3	0	0	---	0.00	30.327 
04:10	26.0	26.0	26.0	60	14.0	0	0	---	0.00	30.327 
04:15	26.0	26.0	26.0	61	14.4	0	0	---	0.00	30.325 
04:20	25.8	25.8	25.8	62	14.6	0	0	---	0.00	30.325 
04:25	25.8	25.8	25.8	61	14.2	0	0	---	0.00	30.325 
04:30	25.8	25.8	25.8	61	14.2	0	0	---	0.00	30.319 
04:35	25.8	25.8	25.8	62	14.6	0	0	---	0.00	30.319 
04:40	25.8	25.8	25.8	62	14.6	0	0	---	0.00	30.319 
04:45	25.8	25.8	25.8	62	14.6	0	0	---	0.00	30.314 
04:50	25.7	25.7	25.7	62	14.5	0	0	---	0.00	30.314 
04:55	25.6	25.6	25.6	62	14.4	0	0	---	0.00	30.314 
05:00	25.4	25.4	25.4	63	14.6	0	0	---	0.00	30.315 
05:05	25.3	25.3	25.3	64	14.9	0	0	---	0.00	30.315 
05:10	25.1	25.1	25.1	65	15.0	0	0	---	0.00	30.315 
05:15	25.0	25.0	25.0	66	15.3	0	0	---	0.00	30.312 
05:20	25.0	25.0	25.0	66	15.3	0	0	---	0.00	30.312 
05:25	25.0	25.0	25.0	66	15.3	0	0	---	0.00	30.312 
05:30	24.8	24.8	24.8	66	15.1	0	0	---	0.00	30.302 
05:35	24.7	24.7	24.7	66	15.0	0	0	---	0.00	30.302 
05:40	24.5	24.5	24.5	67	15.1	0	0	---	0.00	30.302 
05:45	24.4	24.4	24.4	67	15.0	0	0	---	0.00	30.296 
05:50	24.2	24.2	24.2	67	14.8	0	0	---	0.00	30.296 
05:55	24.1	24.1	24.1	68	15.1	0	0	---	0.00	30.296 
06:00	23.8	23.8	23.8	68	14.8	0	0	---	0.00	30.289 
06:05	23.6	23.6	23.6	69	14.9	0	0	---	0.00	30.289 
06:10	23.6	23.6	23.6	69	14.9	0	0	---	0.00	30.289 
06:15	23.5	23.5	23.5	69	14.9	0	0	---	0.00	30.288 
06:20	23.3	23.3	23.3	71	15.3	0	0	---	0.00	30.288 
06:25	23.5	23.5	23.5	72	15.8	0	0	---	0.00	30.288 
06:30	23.5	23.5	23.5	72	15.8	0	0	---	0.00	30.281 
06:35	23.5	23.5	23.5	72	15.8	0	0	---	0.00	30.281 
06:40	23.5	23.5	23.5	72	15.8	0	0	---	0.00	30.281 
06:45	23.3	23.3	23.3	72	15.6	0	0	---	0.00	30.281 
06:50	23.2	23.2	23.2	72	15.5	0	0	---	0.00	30.281 
06:55	23.0	23.0	23.0	72	15.3	0	0	---	0.00	30.281 
07:00	22.9	22.9	22.9	72	15.2	0	0	---	0.00	30.282 
07:05	22.7	22.7	22.7	73	15.4	0	0	---	0.00	30.282 
07:10	22.5	22.5	22.5	73	15.2	0	0	---	0.00	30.282 
07:15	22.5	22.5	22.5	73	15.2	0	0	---	0.00	30.283 
07:20	22.5	22.5	22.5	74	15.5	0	0	---	0.00	30.283 
07:25	22.5	22.5	22.5	74	15.5	0	0	---	0.00	30.283 
07:30	22.5	22.5	22.5	74	15.5	0	0	---	0.00	30.282 
07:35	22.5	22.5	22.5	75	15.8	0	0	---	0.00	30.282 
07:40	22.5	22.5	22.5	75	15.8	0	0	---	0.00	30.282 
07:45	22.7	22.7	22.7	76	16.3	0	0	---	0.00	30.276 
07:50	22.9	22.9	22.9	76	16.5	0	0	---	0.00	30.276 
07:55	23.0	23.0	23.0	77	16.9	0	0	---	0.00	30.276 
08:00	23.6	23.6	23.6	76	17.2	0	1	90	0.00	30.273 
08:05	24.4	24.4	24.4	74	17.3	0	1	90	0.00	30.273 
08:10	25.0	25.0	25.0	72	17.3	0	1	90	0.00	30.273 
08:15	25.6	25.6	25.6	71	17.5	0	1	90	0.00	30.272 
08:20	25.8	25.8	25.8	70	17.4	0	2	90	0.00	30.272 
08:25	26.3	26.3	26.3	69	17.5	0	2	90	0.00	30.272 
08:30	26.7	26.7	26.7	68	17.6	0	2	90	0.00	30.262 
08:35	27.3	27.3	27.3	66	17.5	0	2	90	0.00	30.262 
08:40	27.8	27.8	27.8	65	17.6	0	2	90	0.00	30.262 
08:45	28.2	28.2	28.2	64	17.6	0	2	90	0.00	30.261 
08:50	29.0	29.0	29.0	64	18.4	0	2	90	0.00	30.261 
08:55	29.4	29.4	29.4	63	18.4	1	3	90	0.00	30.261 
09:00	29.7	29.7	29.7	62	18.3	1	3	90	0.00	30.256 
09:05	30.1	30.1	30.1	61	18.3	1	3	90	0.00	30.256 
09:10	30.6	30.6	30.6	59	18.0	1	2	90	0.00	30.256 
09:15	31.2	31.2	31.2	59	18.6	1	3	90	0.00	30.258 
09:20	31.8	31.8	31.8	57	18.3	1	2	112	0.00	30.258 
09:25	32.4	32.4	32.4	57	18.9	1	2	112	0.00	30.258 
09:30	32.7	32.7	32.7	56	18.8	1	4	112	0.00	30.248 
09:35	33.2	33.2	33.2	56	19.2	1	3	112	0.00	30.248 
09:40	33.8	33.8	33.8	54	18.9	1	3	112	0.00	30.248 
09:45	34.6	34.6	34.6	54	19.7	1	4	112	0.00	30.242 
09:50	35.3	35.3	35.3	53	19.9	1	5	112	0.00	30.242 
09:55	36.0	36.0	36.0	50	19.2	2	5	90	0.00	30.242 
10:00	36.6	36.6	36.6	50	19.7	1	3	112	0.00	30.230 
10:05	37.0	37.0	37.0	48	19.2	1	3	22	0.00	30.230 
10:10	37.6	37.6	37.6	48	19.7	1	3	135	0.00	30.230 
10:15	38.5	38.5	38.5	46	19.5	1	4	90	0.00	30.222 
10:20	39.2	39.2	39.2	44	19.1	2	5	112	0.00	30.222 
10:25	39.8	39.8	39.8	44	19.7	2	6	90	0.00	30.222 
10:30	40.3	40.3	40.3	42	19.1	2	6	135	0.00	30.216 
10:35	40.6	40.6	40.6	41	18.8	2	4	90	0.00	30.216 
10:40	41.3	41.3	41.3	42	20.0	2	3	90	0.00	30.216 
10:45	41.9	41.9	41.9	39	18.8	3	7	90	0.00	30.209 
10:50	42.5	42.5	42.5	41	20.5	1	4	270	0.00	30.209 
10:55	43.1	43.1	43.1	40	20.4	1	3	68	0.00	30.209 
11:00	43.3	43.3	43.3	40	20.6	1	5	90	0.00	30.210 
11:05	43.5	43.5	43.5	36	18.3	1	4	90	0.00	30.210 
11:10	43.9	43.9	43.9	36	18.7	1	3	90	0.00	30.210 
11:15	44.6	44.6	44.6	34	18.0	1	3	90	0.00	30.206 
11:20	45.1	45.1	45.1	35	19.1	1	3	90	0.00	30.206 
11:25	45.4	45.4	45.4	32	17.3	1	4	90	0.00	30.206 
11:30	45.7	45.7	45.7	30	16.1	2	4	112	0.00	30.198 
11:35	46.0	46.0	46.0	35	19.9	1	4	112	0.00	30.198 
11:40	46.2	46.2	46.2	31	17.3	1	3	112	0.00	30.198 
11:45	46.7	46.7	46.7	29	16.2	1	4	112	0.00	30.190 
11:50	46.8	46.8	46.8	31	17.8	0	2	248	0.00	30.190 
11:55	47.4	47.4	47.4	29	16.8	1	2	248	0.00	30.190 
12:00	47.7	47.7	47.7	30	17.8	1	3	248	0.00	30.185 
12:05	48.3	48.3	48.3	29	17.5	0	2	270	0.00	30.185 
12:10	48.6	48.6	48.6	30	18.6	0	3	270	0.00	30.185 
12:15	48.3	48.3	48.3	28	16.7	0	3	270	0.00	30.174 
12:20	48.8	48.8	48.8	30	18.8	1	4	270	0.00	30.174 
12:25	48.9	48.9	48.9	27	16.4	1	5	112	0.00	30.174 
12:30	48.8	48.8	48.8	31	19.5	1	3	112	0.00	30.168 
12:35	48.8	48.8	48.8	26	15.5	1	5	112	0.00	30.168 
12:40	49.2	49.2	49.2	28	17.5	0	3	112	0.00	30.168 
12:45	49.4	49.4	49.4	30	19.3	1	3	158	0.00	30.158 
12:50	49.6	49.6	49.6	26	16.1	1	3	22	0.00	30.158 
12:55	49.6	49.6	49.6	27	17.0	1	3	0	0.00	30.158 
13:00	49.8	49.8	49.8	28	18.0	0	2	270	0.00	30.152 
13:05	50.1	50.1	50.1	28	18.3	1	3	248	0.00	30.152 
13:10	50.1	50.1	50.1	27	17.4	0	2	248	0.00	30.152 
13:15	50.4	50.4	50.4	28	18.5	2	4	90	0.00	30.140 
13:20	50.7	50.7	50.7	28	18.8	1	6	90	0.00	30.140 
13:25	50.7	50.7	50.7	26	17.1	2	5	90	0.00	30.140 
13:30	50.8	50.8	50.8	25	16.3	1	3	112	0.00	30.129 
13:35	51.0	51.0	51.0	26	17.3	1	4	112	0.00	30.129 
13:40	51.4	51.4	51.4	26	17.7	1	3	248	0.00	30.129 
13:45	51.7	51.7	51.7	26	17.9	1	4	248	0.00	30.117 
13:50	52.0	52.0	52.0	25	17.3	0	2	248	0.00	30.117 
13:55	52.5	52.5	52.5	28	20.4	0	2	248	0.00	30.117 
14:00	52.8	52.8	52.8	27	19.8	1	2	248	0.00	30.108 
14:05	53.2	53.2	53.2	25	18.3	1	4	248	0.00	30.108 
14:10	53.2	53.2	53.2	27	20.1	1	3	112	0.00	30.108 
14:15	53.5	53.5	53.5	25	18.6	1	4	248	0.00	30.101 
14:20	53.2	53.2	53.2	22	15.4	0	2	248	0.00	30.101 
14:25	53.2	53.2	53.2	27	20.1	0	3	248	0.00	30.101 
14:30	53.5	53.5	53.5	27	20.4	0	2	68	0.00	30.089 
14:35	53.9	53.9	53.9	28	21.6	0	3	68	0.00	30.089 
14:40	54.5	54.5	54.5	26	20.3	0	3	68	0.00	30.089 
14:45	54.4	54.4	54.4	25	19.3	2	7	90	0.00	30.080 
14:50	54.1	54.1	54.1	25	19.1	1	7	270	0.00	30.080 
14:55	54.5	54.5	54.5	25	19.4	0	2	248	0.00	30.080 
15:00	54.8	54.8	54.8	24	18.7	1	4	248	0.00	30.074 
15:05	55.0	55.0	55.0	25	19.8	1	3	90	0.00	30.074 
15:10	55.0	55.0	55.0	26	20.8	1	3	68	0.00	30.074 
15:15	54.8	54.8	54.8	23	17.7	1	2	270	0.00	30.069 
15:20	55.0	55.0	55.0	26	20.8	0	1	270	0.00	30.069 
15:25	55.7	55.7	55.7	25	20.4	1	4	270	0.00	30.069 
15:30	56.2	56.2	56.2	25	20.9	0	3	270	0.00	30.057 
15:35	56.3	56.3	56.3	22	18.0	1	3	270	0.00	30.057 
15:40	56.2	56.2	56.2	22	17.9	1	4	248	0.00	30.057 
15:45	55.9	55.9	55.9	25	20.6	1	4	248	0.00	30.053 
15:50	55.9	55.9	55.9	25	20.6	1	5	112	0.00	30.053 
15:55	56.0	56.0	56.0	24	19.7	1	3	270	0.00	30.053 
16:00	56.5	56.5	56.5	22	18.1	1	3	225	0.00	30.041 
16:05	56.5	56.5	56.5	21	17.0	1	4	225	0.00	30.041 
16:10	56.2	56.2	56.2	22	17.9	1	4	225	0.00	30.041 
16:15	55.4	55.4	55.4	21	16.1	0	2	225	0.00	30.038 
16:20	55.7	55.7	55.7	21	16.4	1	4	248	0.00	30.038 
16:25	56.0	56.0	56.0	22	17.7	1	3	248	0.00	30.038 
16:30	56.5	56.5	56.5	21	17.0	0	3	248	0.00	30.026 
16:35	56.5	56.5	56.5	20	15.9	1	3	248	0.00	30.026 
16:40	56.5	56.5	56.5	22	18.1	1	3	248	0.00	30.026 
16:45	56.5	56.5	56.5	21	17.0	1	3	248	0.00	30.024 
16:50	56.6	56.6	56.6	20	16.0	1	4	248	0.00	30.024 
16:55	56.5	56.5	56.5	21	17.0	0	2	248	0.00	30.024 
17:00	56.3	56.3	56.3	24	20.0	0	3	270	0.00	30.023 
17:05	56.2	56.2	56.2	21	16.8	0	1	270	0.00	30.023 
17:10	56.0	56.0	56.0	23	18.7	1	5	315	0.00	30.023 
17:15	56.0	56.0	56.0	21	16.6	1	4	315	0.00	30.017 
17:20	55.9	55.9	55.9	20	15.4	1	3	292	0.00	30.017 
17:25	56.0	56.0	56.0	20	15.5	1	3	292	0.00	30.017 
17:30	56.2	56.2	56.2	20	15.7	1	3	292	0.00	30.012 
17:35	56.0	56.0	56.0	21	16.6	2	4	315	0.00	30.012 
17:40	56.0	56.0	56.0	21	16.6	1	2	270	0.00	30.012 
17:45	56.2	56.2	56.2	22	17.9	1	3	270	0.00	30.010 
17:50	56.2	56.2	56.2	21	16.8	1	4	270	0.00	30.010 
17:55	56.2	56.2	56.2	21	16.8	0	2	248	0.00	30.010 
18:00	56.2	56.2	56.2	20	15.7	1	3	270	0.00	30.009 
18:05	56.0	56.0	56.0	20	15.5	1	3	270	0.00	30.009 
18:10	55.7	55.7	55.7	21	16.4	1	3	270	0.00	30.009 
18:15	55.7	55.7	55.7	22	17.5	1	2	270	0.00	30.010 
18:20	55.6	55.6	55.6	22	17.4	1	3	315	0.00	30.010 
18:25	55.6	55.6	55.6	22	17.4	1	3	270	0.00	30.010 
18:30	55.6	55.6	55.6	22	17.4	1	3	270	0.00	30.009 
18:35	55.6	55.6	55.6	21	16.3	0	1	270	0.00	30.009 
18:40	55.6	55.6	55.6	23	18.4	0	1	270	0.00	30.009 
18:45	55.6	55.6	55.6	22	17.4	1	5	270	0.00	30.008 
18:50	55.4	55.4	55.4	21	16.1	1	4	248	0.00	30.008 
18:55	55.1	55.1	55.1	21	15.9	1	4	248	0.00	30.008 
19:00	54.8	54.8	54.8	22	16.7	0	1	248	0.00	30.011 
19:05	54.7	54.7	54.7	22	16.6	1	2	248	0.00	30.011 
19:10	54.5	54.5	54.5	22	16.4	1	4	248	0.00	30.011 
19:15	54.4	54.4	54.4	22	16.4	1	4	248	0.00	30.011 
19:20	54.2	54.2	54.2	23	17.2	0	3	248	0.00	30.011 
19:25	53.9	53.9	53.9	22	15.9	0	2	248	0.00	30.011 
19:30	53.8	53.8	53.8	23	16.9	1	3	248	0.00	30.012 
19:35	53.5	53.5	53.5	23	16.6	1	3	248	0.00	30.012 
19:40	53.3	53.3	53.3	24	17.4	0	1	248	0.00	30.012 
19:45	53.1	53.1	53.1	24	17.3	0	2	248	0.00	30.012 
19:50	52.8	52.8	52.8	24	17.0	0	1	248	0.00	30.012 
19:55	52.3	52.3	52.3	24	16.6	0	2	248	0.00	30.012 
20:00	52.0	52.0	52.0	24	16.3	0	1	248	0.00	30.010 
20:05	51.7	51.7	51.7	24	16.1	0	1	248	0.00	30.010 
20:10	51.3	51.3	51.3	24	15.8	0	1	248	0.00	30.010 
20:15	51.0	51.0	51.0	24	15.5	0	1	248	0.00	30.003 
20:20	50.7	50.7	50.7	25	16.2	0	1	248	0.00	30.003 
20:25	50.2	50.2	50.2	25	15.8	0	0	---	0.00	30.003 
20:30	49.8	49.8	49.8	25	15.4	0	0	---	0.00	30.002 
20:35	49.2	49.2	49.2	26	15.8	0	0	---	0.00	30.002 
20:40	48.8	48.8	48.8	26	15.5	0	0	---	0.00	30.002 
20:45	48.2	48.2	48.2	27	15.8	0	0	---	0.00	30.003 
20:50	47.7	47.7	47.7	27	15.4	0	0	---	0.00	30.003 
20:55	47.3	47.3	47.3	28	15.9	0	0	---	0.00	30.003 
21:00	46.7	46.7	46.7	28	15.3	0	0	---	0.00	30.002 
21:05	46.2	46.2	46.2	29	15.7	0	0	---	0.00	30.002 
21:10	45.7	45.7	45.7	30	16.1	0	0	---	0.00	30.002 
21:15	44.9	44.9	44.9	30	15.4	0	0	---	0.00	30.002 
21:20	44.5	44.5	44.5	31	15.8	0	0	---	0.00	30.002 
21:25	43.9	43.9	43.9	33	16.7	0	0	---	0.00	30.002 
21:30	43.3	43.3	43.3	34	16.8	0	0	---	0.00	30.001 
21:35	42.8	42.8	42.8	35	17.1	0	0	---	0.00	30.001 
21:40	42.3	42.3	42.3	35	16.6	0	0	---	0.00	30.001 
21:45	41.8	41.8	41.8	37	17.5	0	0	---	0.00	30.008 
21:50	41.5	41.5	41.5	38	17.8	0	0	---	0.00	30.008 
21:55	41.2	41.2	41.2	39	18.1	0	0	---	0.00	30.008 
22:00	40.9	40.9	40.9	39	17.9	0	0	---	0.00	30.009 
22:05	40.6	40.6	40.6	40	18.2	0	0	---	0.00	30.009 
22:10	40.3	40.3	40.3	40	17.9	0	0	---	0.00	30.009 
22:15	40.1	40.1	40.1	42	18.9	0	0	---	0.00	30.001 
22:20	39.8	39.8	39.8	43	19.1	0	0	---	0.00	30.001 
22:25	39.3	39.3	39.3	44	19.2	0	0	---	0.00	30.001 
22:30	39.1	39.1	39.1	44	19.0	0	0	---	0.00	29.994 
22:35	38.8	38.8	38.8	46	19.8	0	0	---	0.00	29.994 
22:40	38.6	38.6	38.6	46	19.6	0	0	---	0.00	29.994 
22:45	38.5	38.5	38.5	47	20.0	0	0	---	0.00	29.993 
22:50	38.2	38.2	38.2	48	20.3	0	0	---	0.00	29.993 
22:55	38.0	38.0	38.0	49	20.6	0	0	---	0.00	29.993 
23:00	37.8	37.8	37.8	49	20.4	0	0	---	0.00	29.993 
23:05	37.6	37.6	37.6	50	20.7	0	0	---	0.00	29.993 
23:10	37.5	37.5	37.5	50	20.6	0	0	---	0.00	29.993 
23:15	37.2	37.2	37.2	50	20.3	0	0	---	0.00	29.987 
23:20	36.9	36.9	36.9	51	20.5	0	0	---	0.00	29.987 
23:25	36.8	36.8	36.8	52	20.8	0	0	---	0.00	29.987 
23:30	36.6	36.6	36.6	53	21.1	0	0	---	0.00	29.986 
23:35	36.6	36.6	36.6	53	21.1	0	0	---	0.00	29.986 
23:40	36.5	36.5	36.5	53	21.0	0	0	---	0.00	29.986 
23:45	36.3	36.3	36.3	53	20.8	0	0	---	0.00	29.976 
23:50	36.2	36.2	36.2	53	20.7	0	0	---	0.00	29.976 
23:55	36.2	36.2	36.2	54	21.2	0	0	---	0.00	29.976 

CoCoRaHS
IN-AL-39
A2 Web Hosting
Creative Commons License
GoDaddy
search engine by freefind advanced

loaded 2018-11-17 18:10:27 • last modified 2010-11-18 10:43:29
Privacy PolicyDisclaimer
• wx.awcolley.com is powered by PmWiki v.2002016 •
• all content (unless otherwise noted) © 2018 A W Colley